sensor_id;sensor_type;location;lat;lon;timestamp;P1;durP1;ratioP1;P2;durP2;ratioP2
71692;SDS011;59524;43.000;-0.216;2022-07-04T00:01:15;18.20;;;6.78;;
71692;SDS011;59524;43.000;-0.216;2022-07-04T00:03:42;15.45;;;6.78;;
71692;SDS011;59524;43.000;-0.216;2022-07-04T00:06:08;14.18;;;7.70;;
71692;SDS011;59524;43.000;-0.216;2022-07-04T00:08:35;10.13;;;6.85;;
71692;SDS011;59524;43.000;-0.216;2022-07-04T00:11:02;7.80;;;7.00;;
71692;SDS011;59524;43.000;-0.216;2022-07-04T00:13:29;9.20;;;7.60;;
71692;SDS011;59524;43.000;-0.216;2022-07-04T00:15:56;9.88;;;7.00;;
71692;SDS011;59524;43.000;-0.216;2022-07-04T00:18:23;8.75;;;6.82;;
71692;SDS011;59524;43.000;-0.216;2022-07-04T00:20:49;7.38;;;6.68;;
71692;SDS011;59524;43.000;-0.216;2022-07-04T00:23:16;10.25;;;7.20;;
71692;SDS011;59524;43.000;-0.216;2022-07-04T00:25:44;9.52;;;6.70;;
71692;SDS011;59524;43.000;-0.216;2022-07-04T00:28:11;10.50;;;6.50;;
71692;SDS011;59524;43.000;-0.216;2022-07-04T00:30:38;13.57;;;7.20;;
71692;SDS011;59524;43.000;-0.216;2022-07-04T00:33:05;12.73;;;7.35;;
71692;SDS011;59524;43.000;-0.216;2022-07-04T00:35:31;11.75;;;7.07;;
71692;SDS011;59524;43.000;-0.216;2022-07-04T00:37:58;9.82;;;7.63;;
71692;SDS011;59524;43.000;-0.216;2022-07-04T00:40:25;9.98;;;7.05;;
71692;SDS011;59524;43.000;-0.216;2022-07-04T00:42:53;11.88;;;7.10;;
71692;SDS011;59524;43.000;-0.216;2022-07-04T00:45:20;10.00;;;7.82;;
71692;SDS011;59524;43.000;-0.216;2022-07-04T00:47:46;10.55;;;7.35;;
71692;SDS011;59524;43.000;-0.216;2022-07-04T00:50:13;10.38;;;7.28;;
71692;SDS011;59524;43.000;-0.216;2022-07-04T00:52:39;11.90;;;8.05;;
71692;SDS011;59524;43.000;-0.216;2022-07-04T00:55:06;9.20;;;7.03;;
71692;SDS011;59524;43.000;-0.216;2022-07-04T00:57:33;11.75;;;7.30;;
71692;SDS011;59524;43.000;-0.216;2022-07-04T01:00:01;8.80;;;7.38;;
71692;SDS011;59524;43.000;-0.216;2022-07-04T01:02:27;13.43;;;7.40;;
71692;SDS011;59524;43.000;-0.216;2022-07-04T01:04:54;11.98;;;7.35;;
71692;SDS011;59524;43.000;-0.216;2022-07-04T01:07:20;10.35;;;8.10;;
71692;SDS011;59524;43.000;-0.216;2022-07-04T01:09:47;8.93;;;7.50;;
71692;SDS011;59524;43.000;-0.216;2022-07-04T01:12:34;12.15;;;8.00;;
71692;SDS011;59524;43.000;-0.216;2022-07-04T01:15:01;14.13;;;8.02;;
71692;SDS011;59524;43.000;-0.216;2022-07-04T01:17:27;10.93;;;7.93;;
71692;SDS011;59524;43.000;-0.216;2022-07-04T01:19:54;41.33;;;9.70;;
71692;SDS011;59524;43.000;-0.216;2022-07-04T01:22:21;205.73;;;14.65;;
71692;SDS011;59524;43.000;-0.216;2022-07-04T01:24:48;48.08;;;9.45;;
71692;SDS011;59524;43.000;-0.216;2022-07-04T01:27:15;69.15;;;11.00;;
71692;SDS011;59524;43.000;-0.216;2022-07-04T01:29:42;46.53;;;10.13;;
71692;SDS011;59524;43.000;-0.216;2022-07-04T01:32:10;46.40;;;10.23;;
71692;SDS011;59524;43.000;-0.216;2022-07-04T01:34:37;21.02;;;9.27;;
71692;SDS011;59524;43.000;-0.216;2022-07-04T01:37:04;11.98;;;8.50;;
71692;SDS011;59524;43.000;-0.216;2022-07-04T01:39:32;18.42;;;9.50;;
71692;SDS011;59524;43.000;-0.216;2022-07-04T01:41:59;12.07;;;8.52;;
71692;SDS011;59524;43.000;-0.216;2022-07-04T01:44:25;10.18;;;8.10;;
71692;SDS011;59524;43.000;-0.216;2022-07-04T01:46:52;8.60;;;7.05;;
71692;SDS011;59524;43.000;-0.216;2022-07-04T01:49:20;11.60;;;7.80;;
71692;SDS011;59524;43.000;-0.216;2022-07-04T01:51:47;7.65;;;6.45;;
71692;SDS011;59524;43.000;-0.216;2022-07-04T01:54:14;26.42;;;8.40;;
71692;SDS011;59524;43.000;-0.216;2022-07-04T01:56:42;16.55;;;6.97;;
71692;SDS011;59524;43.000;-0.216;2022-07-04T01:59:09;8.38;;;7.10;;
71692;SDS011;59524;43.000;-0.216;2022-07-04T02:01:35;11.25;;;7.25;;
71692;SDS011;59524;43.000;-0.216;2022-07-04T02:04:03;9.75;;;6.18;;
71692;SDS011;59524;43.000;-0.216;2022-07-04T02:06:31;7.53;;;6.13;;
71692;SDS011;59524;43.000;-0.216;2022-07-04T02:08:58;6.55;;;5.88;;
71692;SDS011;59524;43.000;-0.216;2022-07-04T02:11:44;6.47;;;5.82;;
71692;SDS011;59524;43.000;-0.216;2022-07-04T02:14:31;7.97;;;5.30;;
71692;SDS011;59524;43.000;-0.216;2022-07-04T02:16:58;6.03;;;5.43;;
71692;SDS011;59524;43.000;-0.216;2022-07-04T02:19:24;6.55;;;5.95;;
71692;SDS011;59524;43.000;-0.216;2022-07-04T02:21:51;7.75;;;5.40;;
71692;SDS011;59524;43.000;-0.216;2022-07-04T02:24:18;31.05;;;6.55;;
71692;SDS011;59524;43.000;-0.216;2022-07-04T02:26:45;422.92;;;21.88;;
71692;SDS011;59524;43.000;-0.216;2022-07-04T02:29:12;319.50;;;19.45;;
71692;SDS011;59524;43.000;-0.216;2022-07-04T02:31:38;256.75;;;17.00;;
71692;SDS011;59524;43.000;-0.216;2022-07-04T02:34:05;272.45;;;15.55;;
71692;SDS011;59524;43.000;-0.216;2022-07-04T02:36:32;421.67;;;22.27;;
71692;SDS011;59524;43.000;-0.216;2022-07-04T02:38:59;130.48;;;12.15;;
71692;SDS011;59524;43.000;-0.216;2022-07-04T02:41:26;104.07;;;10.70;;
71692;SDS011;59524;43.000;-0.216;2022-07-04T02:43:53;60.10;;;8.27;;
71692;SDS011;59524;43.000;-0.216;2022-07-04T02:46:20;42.25;;;7.80;;
71692;SDS011;59524;43.000;-0.216;2022-07-04T02:48:46;36.90;;;7.35;;
71692;SDS011;59524;43.000;-0.216;2022-07-04T02:51:14;79.60;;;9.10;;
71692;SDS011;59524;43.000;-0.216;2022-07-04T02:53:41;220.02;;;14.10;;
71692;SDS011;59524;43.000;-0.216;2022-07-04T02:56:08;196.70;;;12.60;;
71692;SDS011;59524;43.000;-0.216;2022-07-04T02:58:35;185.77;;;13.55;;
71692;SDS011;59524;43.000;-0.216;2022-07-04T03:01:01;32.60;;;9.20;;
71692;SDS011;59524;43.000;-0.216;2022-07-04T03:03:29;36.78;;;7.60;;
71692;SDS011;59524;43.000;-0.216;2022-07-04T03:05:55;22.23;;;7.30;;
71692;SDS011;59524;43.000;-0.216;2022-07-04T03:08:22;34.65;;;7.28;;
71692;SDS011;59524;43.000;-0.216;2022-07-04T03:10:49;10.55;;;6.47;;
71692;SDS011;59524;43.000;-0.216;2022-07-04T03:13:17;7.25;;;6.10;;
71692;SDS011;59524;43.000;-0.216;2022-07-04T03:15:45;8.43;;;6.75;;
71692;SDS011;59524;43.000;-0.216;2022-07-04T03:18:12;6.95;;;6.13;;
71692;SDS011;59524;43.000;-0.216;2022-07-04T03:20:38;7.07;;;6.35;;
71692;SDS011;59524;43.000;-0.216;2022-07-04T03:23:05;6.28;;;5.78;;
71692;SDS011;59524;43.000;-0.216;2022-07-04T03:25:32;6.88;;;6.13;;
71692;SDS011;59524;43.000;-0.216;2022-07-04T03:27:59;6.40;;;5.80;;
71692;SDS011;59524;43.000;-0.216;2022-07-04T03:30:26;6.15;;;5.55;;
71692;SDS011;59524;43.000;-0.216;2022-07-04T03:32:53;7.35;;;5.63;;
71692;SDS011;59524;43.000;-0.216;2022-07-04T03:35:20;9.60;;;5.88;;
71692;SDS011;59524;43.000;-0.216;2022-07-04T03:37:47;5.20;;;4.72;;
71692;SDS011;59524;43.000;-0.216;2022-07-04T03:40:14;5.53;;;5.03;;
71692;SDS011;59524;43.000;-0.216;2022-07-04T03:42:41;7.82;;;6.95;;
71692;SDS011;59524;43.000;-0.216;2022-07-04T03:45:08;7.18;;;5.03;;
71692;SDS011;59524;43.000;-0.216;2022-07-04T03:47:35;6.78;;;4.93;;
71692;SDS011;59524;43.000;-0.216;2022-07-04T03:50:02;4.80;;;4.40;;
71692;SDS011;59524;43.000;-0.216;2022-07-04T03:52:29;5.20;;;4.78;;
71692;SDS011;59524;43.000;-0.216;2022-07-04T03:54:55;6.07;;;4.70;;
71692;SDS011;59524;43.000;-0.216;2022-07-04T03:57:22;7.03;;;5.25;;
71692;SDS011;59524;43.000;-0.216;2022-07-04T03:59:50;7.85;;;5.32;;
71692;SDS011;59524;43.000;-0.216;2022-07-04T04:02:16;5.85;;;4.97;;
71692;SDS011;59524;43.000;-0.216;2022-07-04T04:04:42;5.57;;;5.00;;
71692;SDS011;59524;43.000;-0.216;2022-07-04T04:07:28;6.07;;;5.45;;
71692;SDS011;59524;43.000;-0.216;2022-07-04T04:09:56;6.13;;;5.28;;
71692;SDS011;59524;43.000;-0.216;2022-07-04T04:12:23;6.05;;;5.45;;
71692;SDS011;59524;43.000;-0.216;2022-07-04T04:14:49;5.97;;;5.00;;
71692;SDS011;59524;43.000;-0.216;2022-07-04T04:17:16;6.28;;;5.18;;
71692;SDS011;59524;43.000;-0.216;2022-07-04T04:19:43;7.38;;;5.13;;
71692;SDS011;59524;43.000;-0.216;2022-07-04T04:22:10;21.33;;;5.00;;
71692;SDS011;59524;43.000;-0.216;2022-07-04T04:24:37;5.45;;;4.85;;
71692;SDS011;59524;43.000;-0.216;2022-07-04T04:27:03;5.55;;;5.05;;
71692;SDS011;59524;43.000;-0.216;2022-07-04T04:29:30;9.13;;;5.22;;
71692;SDS011;59524;43.000;-0.216;2022-07-04T04:31:57;6.20;;;5.35;;
71692;SDS011;59524;43.000;-0.216;2022-07-04T04:34:23;28.00;;;5.60;;
71692;SDS011;59524;43.000;-0.216;2022-07-04T04:36:50;126.40;;;12.05;;
71692;SDS011;59524;43.000;-0.216;2022-07-04T04:39:18;30.63;;;6.18;;
71692;SDS011;59524;43.000;-0.216;2022-07-04T04:41:45;21.92;;;5.88;;
71692;SDS011;59524;43.000;-0.216;2022-07-04T04:44:12;26.50;;;7.32;;
71692;SDS011;59524;43.000;-0.216;2022-07-04T04:46:38;175.77;;;10.63;;
71692;SDS011;59524;43.000;-0.216;2022-07-04T04:49:05;333.95;;;18.27;;
71692;SDS011;59524;43.000;-0.216;2022-07-04T04:51:32;350.35;;;19.35;;
71692;SDS011;59524;43.000;-0.216;2022-07-04T04:53:58;334.42;;;17.73;;
71692;SDS011;59524;43.000;-0.216;2022-07-04T04:56:25;197.13;;;16.33;;
71692;SDS011;59524;43.000;-0.216;2022-07-04T04:58:53;90.78;;;8.57;;
71692;SDS011;59524;43.000;-0.216;2022-07-04T05:01:20;133.07;;;8.70;;
71692;SDS011;59524;43.000;-0.216;2022-07-04T05:03:46;119.57;;;6.78;;
71692;SDS011;59524;43.000;-0.216;2022-07-04T05:06:13;295.20;;;17.77;;
71692;SDS011;59524;43.000;-0.216;2022-07-04T05:08:39;301.15;;;15.10;;
71692;SDS011;59524;43.000;-0.216;2022-07-04T05:11:07;133.23;;;7.35;;
71692;SDS011;59524;43.000;-0.216;2022-07-04T05:13:33;260.13;;;14.20;;
71692;SDS011;59524;43.000;-0.216;2022-07-04T05:16:01;202.27;;;13.63;;
71692;SDS011;59524;43.000;-0.216;2022-07-04T05:18:27;99.45;;;8.57;;
71692;SDS011;59524;43.000;-0.216;2022-07-04T05:20:54;169.70;;;9.55;;
71692;SDS011;59524;43.000;-0.216;2022-07-04T05:23:21;159.65;;;9.50;;
71692;SDS011;59524;43.000;-0.216;2022-07-04T05:25:49;74.57;;;5.47;;
71692;SDS011;59524;43.000;-0.216;2022-07-04T05:28:16;152.32;;;8.23;;
71692;SDS011;59524;43.000;-0.216;2022-07-04T05:30:42;63.00;;;5.82;;
71692;SDS011;59524;43.000;-0.216;2022-07-04T05:33:09;196.35;;;9.25;;
71692;SDS011;59524;43.000;-0.216;2022-07-04T05:35:37;110.93;;;8.85;;
71692;SDS011;59524;43.000;-0.216;2022-07-04T05:38:04;120.82;;;10.50;;
71692;SDS011;59524;43.000;-0.216;2022-07-04T05:40:31;71.30;;;6.68;;
71692;SDS011;59524;43.000;-0.216;2022-07-04T05:42:58;141.95;;;9.23;;
71692;SDS011;59524;43.000;-0.216;2022-07-04T05:45:25;165.80;;;8.82;;
71692;SDS011;59524;43.000;-0.216;2022-07-04T05:47:52;95.10;;;8.27;;
71692;SDS011;59524;43.000;-0.216;2022-07-04T05:50:19;193.45;;;10.80;;
71692;SDS011;59524;43.000;-0.216;2022-07-04T05:52:46;154.85;;;7.82;;
71692;SDS011;59524;43.000;-0.216;2022-07-04T05:55:13;156.20;;;10.77;;
71692;SDS011;59524;43.000;-0.216;2022-07-04T05:57:40;186.55;;;8.93;;
71692;SDS011;59524;43.000;-0.216;2022-07-04T06:00:06;132.65;;;7.15;;
71692;SDS011;59524;43.000;-0.216;2022-07-04T06:02:34;70.13;;;5.82;;
71692;SDS011;59524;43.000;-0.216;2022-07-04T06:05:00;83.22;;;6.15;;
71692;SDS011;59524;43.000;-0.216;2022-07-04T06:07:27;23.73;;;4.93;;
71692;SDS011;59524;43.000;-0.216;2022-07-04T06:09:54;60.90;;;6.25;;
71692;SDS011;59524;43.000;-0.216;2022-07-04T06:12:21;71.95;;;8.05;;
71692;SDS011;59524;43.000;-0.216;2022-07-04T06:14:47;34.92;;;5.22;;
71692;SDS011;59524;43.000;-0.216;2022-07-04T06:17:14;98.85;;;6.65;;
71692;SDS011;59524;43.000;-0.216;2022-07-04T06:19:40;79.32;;;6.72;;
71692;SDS011;59524;43.000;-0.216;2022-07-04T06:22:07;56.15;;;5.72;;
71692;SDS011;59524;43.000;-0.216;2022-07-04T06:24:34;47.17;;;6.38;;
71692;SDS011;59524;43.000;-0.216;2022-07-04T06:27:01;136.90;;;7.93;;
71692;SDS011;59524;43.000;-0.216;2022-07-04T06:29:29;4.63;;;4.25;;
71692;SDS011;59524;43.000;-0.216;2022-07-04T06:31:56;25.75;;;4.90;;
71692;SDS011;59524;43.000;-0.216;2022-07-04T06:34:22;8.80;;;4.57;;
71692;SDS011;59524;43.000;-0.216;2022-07-04T06:37:08;8.90;;;7.53;;
71692;SDS011;59524;43.000;-0.216;2022-07-04T06:39:34;5.20;;;4.72;;
71692;SDS011;59524;43.000;-0.216;2022-07-04T06:42:01;4.15;;;3.85;;
71692;SDS011;59524;43.000;-0.216;2022-07-04T06:44:29;4.80;;;4.40;;
71692;SDS011;59524;43.000;-0.216;2022-07-04T06:46:55;6.70;;;5.13;;
71692;SDS011;59524;43.000;-0.216;2022-07-04T06:49:22;5.47;;;4.90;;
71692;SDS011;59524;43.000;-0.216;2022-07-04T06:51:49;5.70;;;5.15;;
71692;SDS011;59524;43.000;-0.216;2022-07-04T06:54:16;8.07;;;5.47;;
71692;SDS011;59524;43.000;-0.216;2022-07-04T06:56:42;5.40;;;4.90;;
71692;SDS011;59524;43.000;-0.216;2022-07-04T06:59:09;6.18;;;5.57;;
71692;SDS011;59524;43.000;-0.216;2022-07-04T07:01:35;14.70;;;6.22;;
71692;SDS011;59524;43.000;-0.216;2022-07-04T07:04:02;8.60;;;6.55;;
71692;SDS011;59524;43.000;-0.216;2022-07-04T07:06:29;13.40;;;6.80;;
71692;SDS011;59524;43.000;-0.216;2022-07-04T07:08:56;11.23;;;7.05;;
71692;SDS011;59524;43.000;-0.216;2022-07-04T07:11:22;7.80;;;6.78;;
71692;SDS011;59524;43.000;-0.216;2022-07-04T07:13:49;12.63;;;7.70;;
71692;SDS011;59524;43.000;-0.216;2022-07-04T07:16:18;11.45;;;8.10;;
71692;SDS011;59524;43.000;-0.216;2022-07-04T07:18:44;10.60;;;7.53;;
71692;SDS011;59524;43.000;-0.216;2022-07-04T07:21:11;11.43;;;7.78;;
71692;SDS011;59524;43.000;-0.216;2022-07-04T07:23:39;11.20;;;8.57;;
71692;SDS011;59524;43.000;-0.216;2022-07-04T07:26:07;10.95;;;7.55;;
71692;SDS011;59524;43.000;-0.216;2022-07-04T07:28:34;9.60;;;7.35;;
71692;SDS011;59524;43.000;-0.216;2022-07-04T07:31:01;9.55;;;6.97;;
71692;SDS011;59524;43.000;-0.216;2022-07-04T07:33:27;11.35;;;7.20;;
71692;SDS011;59524;43.000;-0.216;2022-07-04T07:35:54;9.25;;;6.78;;
71692;SDS011;59524;43.000;-0.216;2022-07-04T07:38:21;13.52;;;7.70;;
71692;SDS011;59524;43.000;-0.216;2022-07-04T07:40:47;11.23;;;8.07;;
71692;SDS011;59524;43.000;-0.216;2022-07-04T07:43:14;12.55;;;7.60;;
71692;SDS011;59524;43.000;-0.216;2022-07-04T07:45:40;12.70;;;6.82;;
71692;SDS011;59524;43.000;-0.216;2022-07-04T07:48:06;12.85;;;7.47;;
71692;SDS011;59524;43.000;-0.216;2022-07-04T07:50:33;14.02;;;8.13;;
71692;SDS011;59524;43.000;-0.216;2022-07-04T07:52:59;13.18;;;8.18;;
71692;SDS011;59524;43.000;-0.216;2022-07-04T07:55:26;13.93;;;7.38;;
71692;SDS011;59524;43.000;-0.216;2022-07-04T07:57:54;12.48;;;8.85;;
71692;SDS011;59524;43.000;-0.216;2022-07-04T08:00:20;18.75;;;8.60;;
71692;SDS011;59524;43.000;-0.216;2022-07-04T08:02:47;11.02;;;7.20;;
71692;SDS011;59524;43.000;-0.216;2022-07-04T08:05:33;15.95;;;10.50;;
71692;SDS011;59524;43.000;-0.216;2022-07-04T08:08:00;10.85;;;6.70;;
71692;SDS011;59524;43.000;-0.216;2022-07-04T08:10:27;11.20;;;6.80;;
71692;SDS011;59524;43.000;-0.216;2022-07-04T08:12:54;10.45;;;6.47;;
71692;SDS011;59524;43.000;-0.216;2022-07-04T08:15:21;13.23;;;7.20;;
71692;SDS011;59524;43.000;-0.216;2022-07-04T08:17:48;10.68;;;6.53;;
71692;SDS011;59524;43.000;-0.216;2022-07-04T08:20:15;11.32;;;6.43;;
71692;SDS011;59524;43.000;-0.216;2022-07-04T08:22:42;12.98;;;6.20;;
71692;SDS011;59524;43.000;-0.216;2022-07-04T08:25:08;11.15;;;6.93;;
71692;SDS011;59524;43.000;-0.216;2022-07-04T08:27:35;12.38;;;6.63;;
71692;SDS011;59524;43.000;-0.216;2022-07-04T08:30:02;11.88;;;6.97;;
71692;SDS011;59524;43.000;-0.216;2022-07-04T08:35:33;10.35;;;6.75;;
71692;SDS011;59524;43.000;-0.216;2022-07-04T08:38:01;9.20;;;5.63;;
71692;SDS011;59524;43.000;-0.216;2022-07-04T08:40:29;7.70;;;5.75;;
71692;SDS011;59524;43.000;-0.216;2022-07-04T08:42:55;9.77;;;5.47;;
71692;SDS011;59524;43.000;-0.216;2022-07-04T08:45:25;14.48;;;7.15;;
71692;SDS011;59524;43.000;-0.216;2022-07-04T08:47:52;9.63;;;5.78;;
71692;SDS011;59524;43.000;-0.216;2022-07-04T08:50:22;11.15;;;5.88;;
71692;SDS011;59524;43.000;-0.216;2022-07-04T08:52:53;11.02;;;5.93;;
71692;SDS011;59524;43.000;-0.216;2022-07-04T08:55:20;10.93;;;5.75;;
71692;SDS011;59524;43.000;-0.216;2022-07-04T08:58:06;9.20;;;5.15;;
71692;SDS011;59524;43.000;-0.216;2022-07-04T09:00:52;8.75;;;5.45;;
71692;SDS011;59524;43.000;-0.216;2022-07-04T09:03:20;9.25;;;5.35;;
71692;SDS011;59524;43.000;-0.216;2022-07-04T09:05:47;9.10;;;5.13;;
71692;SDS011;59524;43.000;-0.216;2022-07-04T09:08:14;8.13;;;5.55;;
71692;SDS011;59524;43.000;-0.216;2022-07-04T09:10:41;11.15;;;5.57;;
71692;SDS011;59524;43.000;-0.216;2022-07-04T09:13:09;10.52;;;5.53;;
71692;SDS011;59524;43.000;-0.216;2022-07-04T09:15:36;7.57;;;4.93;;
71692;SDS011;59524;43.000;-0.216;2022-07-04T09:18:04;8.13;;;4.95;;
71692;SDS011;59524;43.000;-0.216;2022-07-04T09:20:32;8.35;;;5.40;;
71692;SDS011;59524;43.000;-0.216;2022-07-04T09:22:58;11.07;;;5.18;;
71692;SDS011;59524;43.000;-0.216;2022-07-04T09:25:25;11.25;;;5.45;;
71692;SDS011;59524;43.000;-0.216;2022-07-04T09:27:52;7.53;;;5.60;;
71692;SDS011;59524;43.000;-0.216;2022-07-04T09:30:20;13.65;;;5.32;;
71692;SDS011;59524;43.000;-0.216;2022-07-04T09:32:48;8.48;;;5.85;;
71692;SDS011;59524;43.000;-0.216;2022-07-04T09:35:17;8.55;;;5.10;;
71692;SDS011;59524;43.000;-0.216;2022-07-04T09:37:45;11.25;;;5.28;;
71692;SDS011;59524;43.000;-0.216;2022-07-04T09:42:48;7.68;;;5.65;;
71692;SDS011;59524;43.000;-0.216;2022-07-04T09:45:20;8.75;;;5.00;;
71692;SDS011;59524;43.000;-0.216;2022-07-04T09:47:50;6.70;;;5.32;;
71692;SDS011;59524;43.000;-0.216;2022-07-04T09:50:19;9.20;;;5.25;;
71692;SDS011;59524;43.000;-0.216;2022-07-04T09:53:07;7.00;;;5.63;;
71692;SDS011;59524;43.000;-0.216;2022-07-04T10:00:25;7.85;;;5.82;;
71692;SDS011;59524;43.000;-0.216;2022-07-04T10:02:52;8.95;;;6.43;;
71692;SDS011;59524;43.000;-0.216;2022-07-04T10:05:24;8.98;;;6.28;;
71692;SDS011;59524;43.000;-0.216;2022-07-04T10:07:51;8.23;;;5.95;;
71692;SDS011;59524;43.000;-0.216;2022-07-04T10:10:21;13.02;;;6.70;;
71692;SDS011;59524;43.000;-0.216;2022-07-04T10:12:50;7.95;;;6.68;;
71692;SDS011;59524;43.000;-0.216;2022-07-04T10:15:17;7.85;;;6.57;;
71692;SDS011;59524;43.000;-0.216;2022-07-04T10:17:45;11.13;;;6.72;;
71692;SDS011;59524;43.000;-0.216;2022-07-04T10:20:12;7.95;;;6.97;;
71692;SDS011;59524;43.000;-0.216;2022-07-04T10:22:39;10.85;;;6.65;;
71692;SDS011;59524;43.000;-0.216;2022-07-04T10:25:06;15.05;;;7.20;;
71692;SDS011;59524;43.000;-0.216;2022-07-04T10:27:33;13.25;;;7.03;;
71692;SDS011;59524;43.000;-0.216;2022-07-04T10:30:02;7.57;;;6.72;;
71692;SDS011;59524;43.000;-0.216;2022-07-04T10:32:29;7.60;;;6.68;;
71692;SDS011;59524;43.000;-0.216;2022-07-04T10:34:56;32.63;;;7.93;;
71692;SDS011;59524;43.000;-0.216;2022-07-04T10:37:23;8.50;;;7.32;;
71692;SDS011;59524;43.000;-0.216;2022-07-04T10:39:50;7.40;;;6.70;;
71692;SDS011;59524;43.000;-0.216;2022-07-04T10:42:26;11.13;;;6.30;;
71692;SDS011;59524;43.000;-0.216;2022-07-04T10:44:54;16.35;;;6.65;;
71692;SDS011;59524;43.000;-0.216;2022-07-04T10:47:27;24.33;;;7.22;;
71692;SDS011;59524;43.000;-0.216;2022-07-04T10:49:56;36.03;;;7.25;;
71692;SDS011;59524;43.000;-0.216;2022-07-04T10:52:24;27.52;;;7.00;;
71692;SDS011;59524;43.000;-0.216;2022-07-04T10:54:51;93.35;;;7.60;;
71692;SDS011;59524;43.000;-0.216;2022-07-04T10:57:18;29.38;;;6.05;;
71692;SDS011;59524;43.000;-0.216;2022-07-04T11:02:23;257.42;;;12.98;;
71692;SDS011;59524;43.000;-0.216;2022-07-04T11:04:52;40.92;;;6.57;;
71692;SDS011;59524;43.000;-0.216;2022-07-04T11:17:56;110.95;;;8.55;;
71692;SDS011;59524;43.000;-0.216;2022-07-04T11:20:23;317.25;;;12.18;;
71692;SDS011;59524;43.000;-0.216;2022-07-04T11:22:50;176.55;;;9.98;;
71692;SDS011;59524;43.000;-0.216;2022-07-04T11:25:17;158.70;;;8.68;;
71692;SDS011;59524;43.000;-0.216;2022-07-04T11:27:44;183.15;;;10.18;;
71692;SDS011;59524;43.000;-0.216;2022-07-04T11:30:11;312.38;;;17.08;;
71692;SDS011;59524;43.000;-0.216;2022-07-04T11:32:38;151.90;;;10.15;;
71692;SDS011;59524;43.000;-0.216;2022-07-04T11:35:05;443.63;;;18.05;;
71692;SDS011;59524;43.000;-0.216;2022-07-04T11:37:32;229.35;;;10.10;;
71692;SDS011;59524;43.000;-0.216;2022-07-04T11:39:59;168.68;;;9.80;;
71692;SDS011;59524;43.000;-0.216;2022-07-04T11:45:31;444.90;;;18.73;;
71692;SDS011;59524;43.000;-0.216;2022-07-04T11:47:58;250.90;;;14.05;;
71692;SDS011;59524;43.000;-0.216;2022-07-04T11:50:25;56.65;;;7.07;;
71692;SDS011;59524;43.000;-0.216;2022-07-04T11:52:52;88.65;;;8.32;;
71692;SDS011;59524;43.000;-0.216;2022-07-04T11:55:19;73.30;;;7.03;;
71692;SDS011;59524;43.000;-0.216;2022-07-04T11:57:47;176.55;;;11.32;;
71692;SDS011;59524;43.000;-0.216;2022-07-04T12:00:17;187.00;;;10.77;;
71692;SDS011;59524;43.000;-0.216;2022-07-04T12:02:44;92.97;;;7.82;;
71692;SDS011;59524;43.000;-0.216;2022-07-04T12:05:11;259.23;;;12.18;;
71692;SDS011;59524;43.000;-0.216;2022-07-04T12:07:40;500.88;;;21.27;;
71692;SDS011;59524;43.000;-0.216;2022-07-04T12:10:10;149.05;;;11.02;;
71692;SDS011;59524;43.000;-0.216;2022-07-04T12:12:50;387.98;;;19.30;;
71692;SDS011;59524;43.000;-0.216;2022-07-04T12:15:18;43.50;;;7.32;;
71692;SDS011;59524;43.000;-0.216;2022-07-04T12:17:45;200.07;;;10.32;;
71692;SDS011;59524;43.000;-0.216;2022-07-04T12:20:15;335.20;;;15.38;;
71692;SDS011;59524;43.000;-0.216;2022-07-04T12:22:46;52.55;;;7.32;;
71692;SDS011;59524;43.000;-0.216;2022-07-04T12:25:25;302.58;;;14.95;;
71692;SDS011;59524;43.000;-0.216;2022-07-04T12:27:53;289.25;;;13.18;;
71692;SDS011;59524;43.000;-0.216;2022-07-04T12:30:20;320.45;;;12.90;;
71692;SDS011;59524;43.000;-0.216;2022-07-04T12:32:49;118.47;;;8.40;;
71692;SDS011;59524;43.000;-0.216;2022-07-04T12:35:37;159.13;;;9.98;;
71692;SDS011;59524;43.000;-0.216;2022-07-04T12:38:04;99.45;;;10.68;;
71692;SDS011;59524;43.000;-0.216;2022-07-04T12:40:32;82.55;;;7.93;;
71692;SDS011;59524;43.000;-0.216;2022-07-04T12:42:59;401.17;;;19.25;;
71692;SDS011;59524;43.000;-0.216;2022-07-04T12:48:29;23.50;;;6.32;;
71692;SDS011;59524;43.000;-0.216;2022-07-04T12:51:08;186.68;;;8.93;;
71692;SDS011;59524;43.000;-0.216;2022-07-04T12:53:36;21.85;;;6.90;;
71692;SDS011;59524;43.000;-0.216;2022-07-04T12:56:03;8.57;;;5.45;;
71692;SDS011;59524;43.000;-0.216;2022-07-04T12:58:29;5.35;;;4.88;;
71692;SDS011;59524;43.000;-0.216;2022-07-04T13:00:57;11.00;;;5.60;;
71692;SDS011;59524;43.000;-0.216;2022-07-04T13:03:24;5.75;;;5.18;;
71692;SDS011;59524;43.000;-0.216;2022-07-04T13:05:50;6.10;;;4.97;;
71692;SDS011;59524;43.000;-0.216;2022-07-04T13:08:17;15.38;;;5.40;;
71692;SDS011;59524;43.000;-0.216;2022-07-04T13:10:44;9.98;;;4.70;;
71692;SDS011;59524;43.000;-0.216;2022-07-04T13:13:11;22.60;;;5.07;;
71692;SDS011;59524;43.000;-0.216;2022-07-04T13:15:37;7.60;;;5.07;;
71692;SDS011;59524;43.000;-0.216;2022-07-04T13:18:04;5.55;;;4.97;;
71692;SDS011;59524;43.000;-0.216;2022-07-04T13:20:30;13.55;;;5.93;;
71692;SDS011;59524;43.000;-0.216;2022-07-04T13:22:57;9.10;;;5.13;;
71692;SDS011;59524;43.000;-0.216;2022-07-04T13:25:23;6.35;;;5.75;;
71692;SDS011;59524;43.000;-0.216;2022-07-04T13:27:50;20.92;;;5.30;;
71692;SDS011;59524;43.000;-0.216;2022-07-04T13:30:17;9.13;;;5.00;;
71692;SDS011;59524;43.000;-0.216;2022-07-04T13:32:44;7.82;;;5.35;;
71692;SDS011;59524;43.000;-0.216;2022-07-04T13:35:11;9.50;;;5.35;;
71692;SDS011;59524;43.000;-0.216;2022-07-04T13:37:38;38.30;;;5.80;;
71692;SDS011;59524;43.000;-0.216;2022-07-04T13:40:06;12.27;;;5.95;;
71692;SDS011;59524;43.000;-0.216;2022-07-04T13:42:33;25.10;;;6.07;;
71692;SDS011;59524;43.000;-0.216;2022-07-04T13:45:19;15.50;;;6.03;;
71692;SDS011;59524;43.000;-0.216;2022-07-04T13:47:46;51.40;;;7.82;;
71692;SDS011;59524;43.000;-0.216;2022-07-04T13:50:13;154.23;;;9.95;;
71692;SDS011;59524;43.000;-0.216;2022-07-04T13:52:40;17.65;;;6.38;;
71692;SDS011;59524;43.000;-0.216;2022-07-04T13:55:07;6.40;;;5.80;;
71692;SDS011;59524;43.000;-0.216;2022-07-04T13:57:35;129.85;;;9.48;;
71692;SDS011;59524;43.000;-0.216;2022-07-04T14:00:03;22.10;;;7.00;;
71692;SDS011;59524;43.000;-0.216;2022-07-04T14:02:30;61.60;;;8.13;;
71692;SDS011;59524;43.000;-0.216;2022-07-04T14:04:57;10.35;;;6.57;;
71692;SDS011;59524;43.000;-0.216;2022-07-04T14:07:40;17.80;;;7.00;;
71692;SDS011;59524;43.000;-0.216;2022-07-04T14:10:09;20.85;;;7.30;;
71692;SDS011;59524;43.000;-0.216;2022-07-04T14:12:36;119.85;;;11.07;;
71692;SDS011;59524;43.000;-0.216;2022-07-04T14:15:03;23.15;;;7.63;;
71692;SDS011;59524;43.000;-0.216;2022-07-04T14:17:29;163.32;;;10.35;;
71692;SDS011;59524;43.000;-0.216;2022-07-04T14:19:57;36.95;;;7.35;;
71692;SDS011;59524;43.000;-0.216;2022-07-04T14:22:24;132.27;;;12.95;;
71692;SDS011;59524;43.000;-0.216;2022-07-04T14:24:51;222.93;;;12.23;;
71692;SDS011;59524;43.000;-0.216;2022-07-04T14:27:18;161.57;;;10.70;;
71692;SDS011;59524;43.000;-0.216;2022-07-04T14:29:45;163.80;;;10.35;;
71692;SDS011;59524;43.000;-0.216;2022-07-04T14:32:11;261.55;;;11.77;;
71692;SDS011;59524;43.000;-0.216;2022-07-04T14:34:38;81.05;;;8.88;;
71692;SDS011;59524;43.000;-0.216;2022-07-04T14:37:05;256.15;;;14.48;;
71692;SDS011;59524;43.000;-0.216;2022-07-04T14:39:33;147.32;;;11.00;;
71692;SDS011;59524;43.000;-0.216;2022-07-04T14:42:00;155.68;;;10.63;;
71692;SDS011;59524;43.000;-0.216;2022-07-04T14:44:27;330.10;;;13.23;;
71692;SDS011;59524;43.000;-0.216;2022-07-04T14:46:54;60.25;;;7.13;;
71692;SDS011;59524;43.000;-0.216;2022-07-04T14:49:21;50.83;;;7.10;;
71692;SDS011;59524;43.000;-0.216;2022-07-04T14:51:48;37.30;;;5.85;;
71692;SDS011;59524;43.000;-0.216;2022-07-04T14:54:16;15.63;;;5.53;;